sensor_id;sensor_type;location;lat;lon;timestamp;pressure;altitude;pressure_sealevel;temperature;humidity
60087;BME280;45960;53.630;55.972;2023-02-28T00:00:28;99826.19;;;0.97;100.00
60087;BME280;45960;53.630;55.972;2023-02-28T00:01:29;99825.44;;;0.94;100.00
60087;BME280;45960;53.630;55.972;2023-02-28T00:02:30;99822.84;;;0.92;100.00
60087;BME280;45960;53.630;55.972;2023-02-28T00:03:31;99821.97;;;0.93;100.00
60087;BME280;45960;53.630;55.972;2023-02-28T00:04:35;99817.59;;;0.92;100.00
60087;BME280;45960;53.630;55.972;2023-02-28T00:05:37;99814.09;;;0.93;100.00
60087;BME280;45960;53.630;55.972;2023-02-28T00:06:38;99822.56;;;1.01;100.00
60087;BME280;45960;53.630;55.972;2023-02-28T00:07:39;99819.88;;;1.03;100.00
60087;BME280;45960;53.630;55.972;2023-02-28T00:08:41;99822.47;;;1.04;100.00
60087;BME280;45960;53.630;55.972;2023-02-28T00:09:42;99815.66;;;0.99;100.00
60087;BME280;45960;53.630;55.972;2023-02-28T00:10:43;99813.75;;;1.02;100.00
60087;BME280;45960;53.630;55.972;2023-02-28T00:11:44;99818.81;;;1.08;100.00
60087;BME280;45960;53.630;55.972;2023-02-28T00:12:45;99814.41;;;1.09;100.00
60087;BME280;45960;53.630;55.972;2023-02-28T00:13:46;99818.91;;;1.05;100.00
60087;BME280;45960;53.630;55.972;2023-02-28T00:14:48;99815.47;;;1.03;100.00
60087;BME280;45960;53.630;55.972;2023-02-28T00:15:59;99812.06;;;1.01;100.00
60087;BME280;45960;53.630;55.972;2023-02-28T00:17:01;99803.34;;;0.99;100.00
60087;BME280;45960;53.630;55.972;2023-02-28T00:18:02;99808.50;;;1.02;100.00
60087;BME280;45960;53.630;55.972;2023-02-28T00:19:03;99808.53;;;1.01;100.00
60087;BME280;45960;53.630;55.972;2023-02-28T00:20:06;99807.75;;;0.99;100.00
60087;BME280;45960;53.630;55.972;2023-02-28T00:21:11;99796.44;;;0.95;100.00
60087;BME280;45960;53.630;55.972;2023-02-28T00:22:12;99806.13;;;0.95;100.00
60087;BME280;45960;53.630;55.972;2023-02-28T00:23:13;99793.94;;;0.92;100.00
60087;BME280;45960;53.630;55.972;2023-02-28T00:24:14;99797.59;;;0.88;100.00
60087;BME280;45960;53.630;55.972;2023-02-28T00:25:18;99802.84;;;0.88;100.00
60087;BME280;45960;53.630;55.972;2023-02-28T00:26:19;99794.94;;;0.88;100.00
60087;BME280;45960;53.630;55.972;2023-02-28T00:27:21;99794.84;;;0.91;100.00
60087;BME280;45960;53.630;55.972;2023-02-28T00:28:23;99789.69;;;0.88;100.00
60087;BME280;45960;53.630;55.972;2023-02-28T00:29:25;99800.31;;;0.85;100.00
60087;BME280;45960;53.630;55.972;2023-02-28T00:30:26;99796.88;;;0.83;100.00
60087;BME280;45960;53.630;55.972;2023-02-28T00:31:27;99807.19;;;0.89;100.00
60087;BME280;45960;53.630;55.972;2023-02-28T00:32:28;99804.50;;;0.91;100.00
60087;BME280;45960;53.630;55.972;2023-02-28T00:33:30;99805.47;;;0.88;100.00
60087;BME280;45960;53.630;55.972;2023-02-28T00:34:31;99803.66;;;0.90;100.00
60087;BME280;45960;53.630;55.972;2023-02-28T00:35:38;99809.78;;;0.91;100.00
60087;BME280;45960;53.630;55.972;2023-02-28T00:36:39;99798.50;;;0.87;100.00
60087;BME280;45960;53.630;55.972;2023-02-28T00:37:44;99800.31;;;0.85;100.00
60087;BME280;45960;53.630;55.972;2023-02-28T00:38:45;99803.84;;;0.84;100.00
60087;BME280;45960;53.630;55.972;2023-02-28T00:39:46;99802.22;;;0.80;100.00
60087;BME280;45960;53.630;55.972;2023-02-28T00:40:47;99799.59;;;0.80;100.00
60087;BME280;45960;53.630;55.972;2023-02-28T00:41:48;99792.56;;;0.80;100.00
60087;BME280;45960;53.630;55.972;2023-02-28T00:42:49;99793.44;;;0.81;100.00
60087;BME280;45960;53.630;55.972;2023-02-28T00:43:51;99798.66;;;0.82;100.00
60087;BME280;45960;53.630;55.972;2023-02-28T00:44:52;99790.00;;;0.79;100.00
60087;BME280;45960;53.630;55.972;2023-02-28T00:45:53;99787.47;;;0.76;100.00
60087;BME280;45960;53.630;55.972;2023-02-28T00:46:54;99796.13;;;0.79;100.00
60087;BME280;45960;53.630;55.972;2023-02-28T00:47:59;99790.91;;;0.78;100.00
60087;BME280;45960;53.630;55.972;2023-02-28T00:49:00;99791.00;;;0.75;100.00
60087;BME280;45960;53.630;55.972;2023-02-28T00:50:01;99792.69;;;0.77;100.00
60087;BME280;45960;53.630;55.972;2023-02-28T00:51:02;99786.56;;;0.77;100.00
60087;BME280;45960;53.630;55.972;2023-02-28T00:52:05;99790.88;;;0.79;100.00
60087;BME280;45960;53.630;55.972;2023-02-28T00:53:06;99792.63;;;0.79;100.00
60087;BME280;45960;53.630;55.972;2023-02-28T00:54:07;99786.56;;;0.77;100.00
60087;BME280;45960;53.630;55.972;2023-02-28T00:55:09;99765.84;;;0.68;100.00
60087;BME280;45960;53.630;55.972;2023-02-28T00:56:10;99796.06;;;0.81;100.00
60087;BME280;45960;53.630;55.972;2023-02-28T00:57:11;99802.22;;;0.80;100.00
60087;BME280;45960;53.630;55.972;2023-02-28T00:58:12;99796.13;;;0.79;100.00
60087;BME280;45960;53.630;55.972;2023-02-28T00:59:14;99794.31;;;0.81;100.00
60087;BME280;45960;53.630;55.972;2023-02-28T01:00:16;99793.31;;;0.84;100.00
60087;BME280;45960;53.630;55.972;2023-02-28T01:01:17;99792.44;;;0.85;100.00
60087;BME280;45960;53.630;55.972;2023-02-28T01:02:18;99785.34;;;0.87;100.00
60087;BME280;45960;53.630;55.972;2023-02-28T01:03:20;99786.09;;;0.91;100.00
60087;BME280;45960;53.630;55.972;2023-02-28T01:04:22;99786.03;;;0.92;100.00
60087;BME280;45960;53.630;55.972;2023-02-28T01:05:23;99782.50;;;0.93;100.00
60087;BME280;45960;53.630;55.972;2023-02-28T01:06:24;99780.78;;;0.92;100.00
60087;BME280;45960;53.630;55.972;2023-02-28T01:07:25;99779.06;;;0.91;100.00
60087;BME280;45960;53.630;55.972;2023-02-28T01:08:27;99782.72;;;0.87;100.00
60087;BME280;45960;53.630;55.972;2023-02-28T01:09:28;99776.53;;;0.88;100.00
60087;BME280;45960;53.630;55.972;2023-02-28T01:10:29;99778.53;;;0.81;100.00
60087;BME280;45960;53.630;55.972;2023-02-28T01:11:32;99788.06;;;0.84;100.00
60087;BME280;45960;53.630;55.972;2023-02-28T01:12:33;99789.72;;;0.86;100.00
60087;BME280;45960;53.630;55.972;2023-02-28T01:13:34;99784.53;;;0.85;100.00
60087;BME280;45960;53.630;55.972;2023-02-28T01:14:35;99791.50;;;0.86;100.00
60087;BME280;45960;53.630;55.972;2023-02-28T01:15:38;99783.69;;;0.84;100.00
60087;BME280;45960;53.630;55.972;2023-02-28T01:16:42;99779.38;;;0.82;100.00
60087;BME280;45960;53.630;55.972;2023-02-28T01:17:43;99785.44;;;0.84;100.00
60087;BME280;45960;53.630;55.972;2023-02-28T01:18:44;99788.00;;;0.87;100.00
60087;BME280;45960;53.630;55.972;2023-02-28T01:19:45;99783.72;;;0.83;100.00
60087;BME280;45960;53.630;55.972;2023-02-28T01:20:47;99780.94;;;0.87;100.00
60087;BME280;45960;53.630;55.972;2023-02-28T01:21:48;99779.28;;;0.85;100.00
60087;BME280;45960;53.630;55.972;2023-02-28T01:22:49;99771.31;;;0.86;100.00
60087;BME280;45960;53.630;55.972;2023-02-28T01:23:50;99774.03;;;0.85;100.00
60087;BME280;45960;53.630;55.972;2023-02-28T01:24:51;99781.00;;;0.86;100.00
60087;BME280;45960;53.630;55.972;2023-02-28T01:25:53;99766.06;;;0.86;100.00
60087;BME280;45960;53.630;55.972;2023-02-28T01:26:54;99775.72;;;0.86;100.00
60087;BME280;45960;53.630;55.972;2023-02-28T01:27:56;99779.28;;;0.85;100.00
60087;BME280;45960;53.630;55.972;2023-02-28T01:28:57;99767.03;;;0.84;100.00
60087;BME280;45960;53.630;55.972;2023-02-28T01:29:59;99764.47;;;0.82;100.00
60087;BME280;45960;53.630;55.972;2023-02-28T01:31:01;99759.31;;;0.79;100.00
60087;BME280;45960;53.630;55.972;2023-02-28T01:32:02;99761.75;;;0.84;100.00
60087;BME280;45960;53.630;55.972;2023-02-28T01:33:03;99758.47;;;0.79;100.00
60087;BME280;45960;53.630;55.972;2023-02-28T01:34:04;99760.88;;;0.85;100.00
60087;BME280;45960;53.630;55.972;2023-02-28T01:35:05;99759.06;;;0.87;100.00
60087;BME280;45960;53.630;55.972;2023-02-28T01:36:12;99752.88;;;0.88;100.00
60087;BME280;45960;53.630;55.972;2023-02-28T01:37:14;99750.34;;;0.85;100.00
60087;BME280;45960;53.630;55.972;2023-02-28T01:38:18;99745.19;;;0.82;100.00
60087;BME280;45960;53.630;55.972;2023-02-28T01:39:19;99755.63;;;0.85;100.00
60087;BME280;45960;53.630;55.972;2023-02-28T01:40:20;99733.16;;;0.75;100.00
60087;BME280;45960;53.630;55.972;2023-02-28T01:41:27;99746.19;;;0.78;100.00
60087;BME280;45960;53.630;55.972;2023-02-28T01:42:28;99753.19;;;0.79;100.00
60087;BME280;45960;53.630;55.972;2023-02-28T01:43:52;99768.97;;;0.79;100.00
60087;BME280;45960;53.630;55.972;2023-02-28T01:45:04;99768.06;;;0.80;100.00
60087;BME280;45960;53.630;55.972;2023-02-28T01:46:07;99772.50;;;0.78;100.00
60087;BME280;45960;53.630;55.972;2023-02-28T01:47:08;99756.59;;;0.81;100.00
60087;BME280;45960;53.630;55.972;2023-02-28T01:48:09;99755.94;;;0.76;100.00
60087;BME280;45960;53.630;55.972;2023-02-28T01:49:16;99768.97;;;0.79;100.00
60087;BME280;45960;53.630;55.972;2023-02-28T01:50:21;99770.72;;;0.78;100.00
60087;BME280;45960;53.630;55.972;2023-02-28T01:51:33;99770.78;;;0.77;100.00
60087;BME280;45960;53.630;55.972;2023-02-28T01:52:35;99768.88;;;0.82;100.00
60087;BME280;45960;53.630;55.972;2023-02-28T01:54:01;99766.25;;;0.82;100.00
60087;BME280;45960;53.630;55.972;2023-02-28T01:55:05;99763.59;;;0.82;100.00
60087;BME280;45960;53.630;55.972;2023-02-28T01:56:08;99766.06;;;0.86;100.00
60087;BME280;45960;53.630;55.972;2023-02-28T01:57:14;99755.75;;;0.80;100.00
60087;BME280;45960;53.630;55.972;2023-02-28T01:58:17;99764.34;;;0.85;100.00
60087;BME280;45960;53.630;55.972;2023-02-28T01:59:29;99769.56;;;0.87;100.00
60087;BME280;45960;53.630;55.972;2023-02-28T02:00:31;99768.75;;;0.85;100.00
60087;BME280;45960;53.630;55.972;2023-02-28T02:01:33;99773.16;;;0.84;100.00
60087;BME280;45960;53.630;55.972;2023-02-28T02:02:36;99777.50;;;0.85;100.00
60087;BME280;45960;53.630;55.972;2023-02-28T02:03:38;99781.00;;;0.86;100.00
60087;BME280;45960;53.630;55.972;2023-02-28T02:04:48;99768.69;;;0.86;100.00
60087;BME280;45960;53.630;55.972;2023-02-28T02:05:51;99768.75;;;0.85;100.00
60087;BME280;45960;53.630;55.972;2023-02-28T02:06:52;99766.84;;;0.90;100.00
60087;BME280;45960;53.630;55.972;2023-02-28T02:08:04;99765.81;;;0.94;100.00
60087;BME280;45960;53.630;55.972;2023-02-28T02:09:06;99756.22;;;0.93;100.00
60087;BME280;45960;53.630;55.972;2023-02-28T02:10:21;99763.94;;;0.98;100.00
60087;BME280;45960;53.630;55.972;2023-02-28T02:11:23;99764.97;;;0.94;100.00
60087;BME280;45960;53.630;55.972;2023-02-28T02:15:31;99747.50;;;0.91;100.00
60087;BME280;45960;53.630;55.972;2023-02-28T02:16:41;99753.47;;;0.96;100.00
60087;BME280;45960;53.630;55.972;2023-02-28T02:17:48;99742.34;;;0.88;100.00
60087;BME280;45960;53.630;55.972;2023-02-28T02:20:16;99759.72;;;0.92;100.00
60087;BME280;45960;53.630;55.972;2023-02-28T02:24:48;99754.38;;;0.95;100.00
60087;BME280;45960;53.630;55.972;2023-02-28T02:26:23;99749.09;;;0.95;100.00
60087;BME280;45960;53.630;55.972;2023-02-28T02:30:37;99756.31;;;0.90;100.00
60087;BME280;45960;53.630;55.972;2023-02-28T02:32:09;99762.44;;;0.91;100.00
60087;BME280;45960;53.630;55.972;2023-02-28T02:36:44;99760.06;;;0.83;100.00
60087;BME280;45960;53.630;55.972;2023-02-28T02:39:30;99753.09;;;0.82;100.00
60087;BME280;45960;53.630;55.972;2023-02-28T02:42:42;99755.44;;;0.89;100.00
60087;BME280;45960;53.630;55.972;2023-02-28T02:43:51;99758.13;;;0.88;100.00
60087;BME280;45960;53.630;55.972;2023-02-28T02:45:01;99746.75;;;0.87;100.00
60087;BME280;45960;53.630;55.972;2023-02-28T02:46:30;99754.38;;;0.95;100.00
60087;BME280;45960;53.630;55.972;2023-02-28T02:47:31;99747.50;;;0.91;100.00
60087;BME280;45960;53.630;55.972;2023-02-28T02:48:36;99747.41;;;0.94;100.00
60087;BME280;45960;53.630;55.972;2023-02-28T02:49:43;99745.25;;;1.05;100.00
60087;BME280;45960;53.630;55.972;2023-02-28T02:50:53;99744.56;;;1.00;100.00
60087;BME280;45960;53.630;55.972;2023-02-28T02:51:57;99743.66;;;1.01;100.00
60087;BME280;45960;53.630;55.972;2023-02-28T02:53:02;99736.38;;;1.09;100.00
60087;BME280;45960;53.630;55.972;2023-02-28T02:54:14;99742.25;;;1.16;100.00
60087;BME280;45960;53.630;55.972;2023-02-28T02:55:17;99742.25;;;1.16;100.00
60087;BME280;45960;53.630;55.972;2023-02-28T02:56:24;99744.94;;;1.15;100.00
60087;BME280;45960;53.630;55.972;2023-02-28T02:57:36;99742.00;;;1.24;100.00
60087;BME280;45960;53.630;55.972;2023-02-28T02:58:42;99742.78;;;1.26;100.00
60087;BME280;45960;53.630;55.972;2023-02-28T02:59:44;99737.50;;;1.26;100.00
60087;BME280;45960;53.630;55.972;2023-02-28T03:00:50;99742.38;;;1.13;100.00
60087;BME280;45960;53.630;55.972;2023-02-28T03:01:57;99746.00;;;1.09;100.00
60087;BME280;45960;53.630;55.972;2023-02-28T03:03:01;99714.34;;;0.87;100.00
60087;BME280;45960;53.630;55.972;2023-02-28T03:04:07;99741.63;;;1.09;100.00
60087;BME280;45960;53.630;55.972;2023-02-28T03:05:17;99746.88;;;1.09;100.00
60087;BME280;45960;53.630;55.972;2023-02-28T03:06:20;99737.97;;;1.14;100.00
60087;BME280;45960;53.630;55.972;2023-02-28T03:07:22;99742.63;;;1.05;100.00
60087;BME280;45960;53.630;55.972;2023-02-28T03:08:23;99747.19;;;1.00;100.00
60087;BME280;45960;53.630;55.972;2023-02-28T03:09:25;99721.41;;;0.85;100.00
60087;BME280;45960;53.630;55.972;2023-02-28T03:10:46;99752.56;;;0.97;100.00
60087;BME280;45960;53.630;55.972;2023-02-28T03:11:54;99754.38;;;0.95;100.00
60087;BME280;45960;53.630;55.972;2023-02-28T03:15:32;99757.81;;;0.97;100.00
60087;BME280;45960;53.630;55.972;2023-02-28T03:16:23;99747.41;;;0.94;100.00
60087;BME280;45960;53.630;55.972;2023-02-28T03:21:26;99750.34;;;0.85;100.00
60087;BME280;45960;53.630;55.972;2023-02-28T03:24:10;99756.59;;;0.81;100.00
60087;BME280;45960;53.630;55.972;2023-02-28T03:26:26;99750.56;;;0.79;100.00
60087;BME280;45960;53.630;55.972;2023-02-28T03:29:09;99750.50;;;0.80;100.00
60087;BME280;45960;53.630;55.972;2023-02-28T03:30:32;99747.97;;;0.77;100.00
60087;BME280;45960;53.630;55.972;2023-02-28T03:31:43;99759.31;;;0.79;100.00
60087;BME280;45960;53.630;55.972;2023-02-28T03:32:51;99760.06;;;0.83;100.00
60087;BME280;45960;53.630;55.972;2023-02-28T03:35:09;99761.75;;;0.84;100.00
60087;BME280;45960;53.630;55.972;2023-02-28T03:36:16;99760.16;;;0.80;100.00
60087;BME280;45960;53.630;55.972;2023-02-28T03:37:22;99760.16;;;0.80;100.00
60087;BME280;45960;53.630;55.972;2023-02-28T03:38:37;99773.19;;;0.83;100.00
60087;BME280;45960;53.630;55.972;2023-02-28T03:40:02;99770.56;;;0.83;100.00
60087;BME280;45960;53.630;55.972;2023-02-28T03:41:15;99771.53;;;0.80;100.00
60087;BME280;45960;53.630;55.972;2023-02-28T03:42:23;99765.53;;;0.77;100.00
60087;BME280;45960;53.630;55.972;2023-02-28T03:43:30;99759.41;;;0.76;100.00
60087;BME280;45960;53.630;55.972;2023-02-28T03:44:51;99768.16;;;0.77;100.00
60087;BME280;45960;53.630;55.972;2023-02-28T03:45:55;99768.06;;;0.80;100.00
60087;BME280;45960;53.630;55.972;2023-02-28T03:47:02;99782.00;;;0.82;100.00
60087;BME280;45960;53.630;55.972;2023-02-28T03:48:28;99783.00;;;0.78;100.00
60087;BME280;45960;53.630;55.972;2023-02-28T03:49:35;99779.41;;;0.80;100.00
60087;BME280;45960;53.630;55.972;2023-02-28T03:50:40;99788.06;;;0.84;100.00
60087;BME280;45960;53.630;55.972;2023-02-28T03:51:42;99782.81;;;0.84;100.00
60087;BME280;45960;53.630;55.972;2023-02-28T03:52:54;99774.03;;;0.85;100.00
60087;BME280;45960;53.630;55.972;2023-02-28T03:54:07;99777.25;;;0.93;100.00
60087;BME280;45960;53.630;55.972;2023-02-28T03:55:12;99784.94;;;0.99;100.00
60087;BME280;45960;53.630;55.972;2023-02-28T03:56:18;99786.75;;;0.97;100.00
60087;BME280;45960;53.630;55.972;2023-02-28T03:57:40;99787.59;;;0.98;100.00
60087;BME280;45960;53.630;55.972;2023-02-28T03:59:05;99792.81;;;0.99;100.00
60087;BME280;45960;53.630;55.972;2023-02-28T04:00:13;99797.88;;;1.05;100.00
60087;BME280;45960;53.630;55.972;2023-02-28T04:02:17;99794.41;;;1.03;100.00
60087;BME280;45960;53.630;55.972;2023-02-28T04:03:19;99796.06;;;1.07;100.00
60087;BME280;45960;53.630;55.972;2023-02-28T04:04:20;99802.13;;;1.09;100.00
60087;BME280;45960;53.630;55.972;2023-02-28T04:05:23;99794.25;;;1.09;100.00
60087;BME280;45960;53.630;55.972;2023-02-28T04:06:25;99788.38;;;1.01;100.00
60087;BME280;45960;53.630;55.972;2023-02-28T04:07:29;99788.66;;;0.92;100.00
60087;BME280;45960;53.630;55.972;2023-02-28T04:08:37;99785.84;;;0.98;100.00
60087;BME280;45960;53.630;55.972;2023-02-28T04:09:38;99794.53;;;1.00;100.00
60087;BME280;45960;53.630;55.972;2023-02-28T04:10:40;99805.06;;;1.00;100.00
60087;BME280;45960;53.630;55.972;2023-02-28T04:11:48;99798.84;;;1.03;100.00
60087;BME280;45960;53.630;55.972;2023-02-28T04:12:52;99797.94;;;1.04;100.00
60087;BME280;45960;53.630;55.972;2023-02-28T04:13:53;99791.00;;;1.01;100.00
60087;BME280;45960;53.630;55.972;2023-02-28T04:14:54;99794.41;;;1.03;100.00
60087;BME280;45960;53.630;55.972;2023-02-28T04:15:55;99790.19;;;0.99;100.00
60087;BME280;45960;53.630;55.972;2023-02-28T04:16:57;99790.50;;;0.90;100.00
60087;BME280;45960;53.630;55.972;2023-02-28T04:17:58;99784.44;;;0.88;100.00
60087;BME280;45960;53.630;55.972;2023-02-28T04:18:59;99794.84;;;0.91;100.00
60087;BME280;45960;53.630;55.972;2023-02-28T04:20:04;99783.72;;;0.83;100.00
60087;BME280;45960;53.630;55.972;2023-02-28T04:21:11;99786.34;;;0.83;100.00
60087;BME280;45960;53.630;55.972;2023-02-28T04:22:12;99776.84;;;0.79;100.00
60087;BME280;45960;53.630;55.972;2023-02-28T04:23:14;99777.53;;;0.84;100.00
60087;BME280;45960;53.630;55.972;2023-02-28T04:24:19;99776.53;;;0.88;100.00
60087;BME280;45960;53.630;55.972;2023-02-28T04:25:20;99774.03;;;0.85;100.00
60087;BME280;45960;53.630;55.972;2023-02-28T04:26:23;99788.06;;;0.84;100.00
60087;BME280;45960;53.630;55.972;2023-02-28T04:27:24;99792.38;;;0.86;100.00
60087;BME280;45960;53.630;55.972;2023-02-28T04:28:25;99789.84;;;0.83;100.00
60087;BME280;45960;53.630;55.972;2023-02-28T04:29:31;99794.13;;;0.86;100.00
60087;BME280;45960;53.630;55.972;2023-02-28T04:30:35;99789.59;;;0.91;100.00
60087;BME280;45960;53.630;55.972;2023-02-28T04:31:38;99785.94;;;0.95;100.00
60087;BME280;45960;53.630;55.972;2023-02-28T04:32:39;99784.22;;;0.94;100.00
60087;BME280;45960;53.630;55.972;2023-02-28T04:33:40;99775.41;;;0.95;100.00
60087;BME280;45960;53.630;55.972;2023-02-28T04:34:42;99770.06;;;0.98;100.00
60087;BME280;45960;53.630;55.972;2023-02-28T04:35:43;99770.97;;;0.97;100.00
60087;BME280;45960;53.630;55.972;2023-02-28T04:36:44;99762.31;;;0.94;100.00
60087;BME280;45960;53.630;55.972;2023-02-28T04:37:46;99770.25;;;0.92;100.00
60087;BME280;45960;53.630;55.972;2023-02-28T04:38:48;99773.69;;;0.94;100.00
60087;BME280;45960;53.630;55.972;2023-02-28T04:39:49;99778.97;;;0.94;100.00
60087;BME280;45960;53.630;55.972;2023-02-28T04:40:50;99789.38;;;0.97;100.00
60087;BME280;45960;53.630;55.972;2023-02-28T04:41:51;99803.34;;;0.99;100.00
60087;BME280;45960;53.630;55.972;2023-02-28T04:42:52;99806.91;;;0.98;100.00
60087;BME280;45960;53.630;55.972;2023-02-28T04:43:54;99805.25;;;0.94;100.00
60087;BME280;45960;53.630;55.972;2023-02-28T04:44:56;99796.44;;;0.95;100.00
60087;BME280;45960;53.630;55.972;2023-02-28T04:46:00;99801.91;;;0.89;100.00
60087;BME280;45960;53.630;55.972;2023-02-28T04:47:02;99809.09;;;0.84;100.00
60087;BME280;45960;53.630;55.972;2023-02-28T04:48:03;99796.97;;;0.80;100.00
60087;BME280;45960;53.630;55.972;2023-02-28T04:49:04;99796.03;;;0.82;100.00
60087;BME280;45960;53.630;55.972;2023-02-28T04:50:06;99795.16;;;0.82;100.00
60087;BME280;45960;53.630;55.972;2023-02-28T04:51:09;99809.19;;;0.81;100.00
60087;BME280;45960;53.630;55.972;2023-02-28T04:52:11;99811.16;;;0.76;100.00
60087;BME280;45960;53.630;55.972;2023-02-28T04:53:14;99813.25;;;0.64;100.00
60087;BME280;45960;53.630;55.972;2023-02-28T04:54:15;99808.38;;;0.52;100.00
60087;BME280;45960;53.630;55.972;2023-02-28T04:55:16;99805.94;;;0.46;100.00
60087;BME280;45960;53.630;55.972;2023-02-28T04:56:18;99806.66;;;0.51;100.00
60087;BME280;45960;53.630;55.972;2023-02-28T04:57:19;99818.78;;;0.55;100.00
60087;BME280;45960;53.630;55.972;2023-02-28T04:58:20;99811.00;;;0.52;100.00
60087;BME280;45960;53.630;55.972;2023-02-28T04:59:23;99817.19;;;0.51;100.00
60087;BME280;45960;53.630;55.972;2023-02-28T05:00:24;99811.84;;;0.54;100.00
60087;BME280;45960;53.630;55.972;2023-02-28T05:01:28;99803.03;;;0.55;100.00
60087;BME280;45960;53.630;55.972;2023-02-28T05:02:30;99809.22;;;0.53;100.00
60087;BME280;45960;53.630;55.972;2023-02-28T05:03:31;99813.84;;;0.46;100.00
60087;BME280;45960;53.630;55.972;2023-02-28T05:04:33;99821.66;;;0.48;100.00
60087;BME280;45960;53.630;55.972;2023-02-28T05:05:35;99824.25;;;0.49;100.00
60087;BME280;45960;53.630;55.972;2023-02-28T05:06:36;99831.13;;;0.53;100.00
60087;BME280;45960;53.630;55.972;2023-02-28T05:07:37;99832.97;;;0.51;100.00
60087;BME280;45960;53.630;55.972;2023-02-28T05:08:39;99830.38;;;0.50;100.00
60087;BME280;45960;53.630;55.972;2023-02-28T05:09:40;99834.00;;;0.46;100.00
60087;BME280;45960;53.630;55.972;2023-02-28T05:10:41;99830.44;;;0.48;100.00
60087;BME280;45960;53.630;55.972;2023-02-28T05:11:42;99822.63;;;0.45;100.00
60087;BME280;45960;53.630;55.972;2023-02-28T05:12:43;99829.69;;;0.43;100.00
60087;BME280;45960;53.630;55.972;2023-02-28T05:13:47;99836.84;;;0.39;100.00
60087;BME280;45960;53.630;55.972;2023-02-28T05:14:49;99835.31;;;0.31;100.00
60087;BME280;45960;53.630;55.972;2023-02-28T05:15:50;99834.47;;;0.30;100.00
60087;BME280;45960;53.630;55.972;2023-02-28T05:16:51;99838.75;;;0.33;100.00
60087;BME280;45960;53.630;55.972;2023-02-28T05:17:52;99819.50;;;0.34;100.00
60087;BME280;45960;53.630;55.972;2023-02-28T05:18:53;99826.06;;;0.47;100.00
60087;BME280;45960;53.630;55.972;2023-02-28T05:19:54;99826.84;;;0.51;100.00
60087;BME280;45960;53.630;55.972;2023-02-28T05:20:55;99835.53;;;0.53;100.00
60087;BME280;45960;53.630;55.972;2023-02-28T05:21:56;99835.69;;;0.48;100.00
60087;BME280;45960;53.630;55.972;2023-02-28T05:22:58;99839.38;;;0.42;100.00
60087;BME280;45960;53.630;55.972;2023-02-28T05:24:19;99839.47;;;0.39;100.00
60087;BME280;45960;53.630;55.972;2023-02-28T05:25:23;99838.47;;;0.42;100.00
60087;BME280;45960;53.630;55.972;2023-02-28T05:26:25;99838.22;;;0.51;100.00
60087;BME280;45960;53.630;55.972;2023-02-28T05:27:27;99836.38;;;0.53;100.00
60087;BME280;45960;53.630;55.972;2023-02-28T05:28:28;99839.81;;;0.55;100.00
60087;BME280;45960;53.630;55.972;2023-02-28T05:29:30;99836.31;;;0.56;100.00
60087;BME280;45960;53.630;55.972;2023-02-28T05:30:31;99843.28;;;0.57;100.00
60087;BME280;45960;53.630;55.972;2023-02-28T05:31:33;99840.50;;;0.62;100.00
60087;BME280;45960;53.630;55.972;2023-02-28T05:32:34;99845.59;;;0.66;100.00
60087;BME280;45960;53.630;55.972;2023-02-28T05:33:35;99834.22;;;0.66;100.00
60087;BME280;45960;53.630;55.972;2023-02-28T05:34:38;99844.03;;;0.61;100.00
60087;BME280;45960;53.630;55.972;2023-02-28T05:35:40;99841.63;;;0.53;100.00
60087;BME280;45960;53.630;55.972;2023-02-28T05:36:43;99841.56;;;0.56;100.00
60087;BME280;45960;53.630;55.972;2023-02-28T05:37:44;99848.66;;;0.53;100.00
60087;BME280;45960;53.630;55.972;2023-02-28T05:38:48;99854.09;;;0.48;100.00
60087;BME280;45960;53.630;55.972;2023-02-28T05:39:50;99836.66;;;0.44;100.00
60087;BME280;45960;53.630;55.972;2023-02-28T05:40:51;99859.69;;;0.36;100.00
60087;BME280;45960;53.630;55.972;2023-02-28T05:41:54;99857.97;;;0.35;100.00
60087;BME280;45960;53.630;55.972;2023-02-28T05:42:55;99863.25;;;0.35;100.00
60087;BME280;45960;53.630;55.972;2023-02-28T05:43:57;99864.09;;;0.35;100.00
60087;BME280;45960;53.630;55.972;2023-02-28T05:44:58;99863.25;;;0.35;100.00
60087;BME280;45960;53.630;55.972;2023-02-28T05:46:02;99866.59;;;0.40;100.00
60087;BME280;45960;53.630;55.972;2023-02-28T05:47:04;99856.19;;;0.37;100.00
60087;BME280;45960;53.630;55.972;2023-02-28T05:48:05;99851.00;;;0.34;100.00
60087;BME280;45960;53.630;55.972;2023-02-28T05:49:06;99863.34;;;0.32;100.00
60087;BME280;45960;53.630;55.972;2023-02-28T05:50:08;99846.09;;;0.21;100.00
60087;BME280;45960;53.630;55.972;2023-02-28T05:51:10;99852.13;;;0.25;100.00
60087;BME280;45960;53.630;55.972;2023-02-28T05:52:11;99849.38;;;0.30;100.00
60087;BME280;45960;53.630;55.972;2023-02-28T05:53:12;99859.25;;;0.51;100.00
60087;BME280;45960;53.630;55.972;2023-02-28T05:54:13;99845.94;;;0.56;100.00
60087;BME280;45960;53.630;55.972;2023-02-28T05:55:14;99838.97;;;0.55;100.00
60087;BME280;45960;53.630;55.972;2023-02-28T05:56:15;99841.56;;;0.56;100.00
60087;BME280;45960;53.630;55.972;2023-02-28T05:57:16;99840.53;;;0.60;100.00
60087;BME280;45960;53.630;55.972;2023-02-28T05:58:17;99839.56;;;0.64;100.00
60087;BME280;45960;53.630;55.972;2023-02-28T05:59:19;99831.75;;;0.61;100.00
60087;BME280;45960;53.630;55.972;2023-02-28T06:00:20;99829.09;;;0.61;100.00
60087;BME280;45960;53.630;55.972;2023-02-28T06:02:35;99830.66;;;0.69;100.00
60087;BME280;45960;53.630;55.972;2023-02-28T06:03:36;99820.84;;;0.74;100.00
60087;BME280;45960;53.630;55.972;2023-02-28T06:04:37;99822.31;;;0.82;100.00
60087;BME280;45960;53.630;55.972;2023-02-28T06:05:38;99819.34;;;0.93;100.00
60087;BME280;45960;53.630;55.972;2023-02-28T06:06:39;99829.53;;;1.02;100.00